Time;durP1;ratioP1;P1;durP2;ratioP2;P2;SDS_P1;SDS_P2;PMS_P1;PMS_P2;Temp;Humidity;BMP_temperature;BMP_pressure;BME280_temperature;BME280_humidity;BME280_pressure;Samples;Min_cycle;Max_cycle;Signal;HPM_P1;HPM_P2
2021/06/06 00:01:02;;;;;;;;;;;;;;;-142.63;100.00;63929.00;6288488;28;19944;-68
2021/06/06 00:04:09;;;;;;;;;;;;;;;-142.63;100.00;63929.00;6288211;28;20115;-68
2021/06/06 00:07:13;;;;;;;;;;;;;;;-142.63;100.00;63929.00;6288028;28;20111;-67
2021/06/06 00:10:17;;;;;;;;;;;;;;;-142.63;100.00;63929.00;6289507;28;19947;-68
2021/06/06 00:13:20;;;;;;;;;;;;;;;-142.63;100.00;63929.00;6289359;28;19991;-68
2021/06/06 00:16:25;;;;;;;;;;;;;;;-142.63;100.00;63929.00;6287114;28;19987;-68
2021/06/06 00:19:30;;;;;;;;;;;;;;;-142.63;100.00;63929.00;6288957;28;19921;-68
2021/06/06 00:22:34;;;;;;;;;;;;;;;-142.63;100.00;63929.00;6287296;28;19925;-68
2021/06/06 00:25:38;;;;;;;;;;;;;;;-142.63;100.00;63929.00;6287443;28;20116;-68
2021/06/06 00:28:41;;;;;;;;;;;;;;;-142.63;100.00;63929.00;6287090;28;19921;-67
2021/06/06 00:31:45;;;;;;;;;;;;;;;-142.63;100.00;63929.00;6288921;28;19928;-67
2021/06/06 00:34:50;;;;;;;;;;;;;;;-142.63;100.00;63929.00;6286752;28;19921;-68
2021/06/06 00:37:54;;;;;;;;;;;;;;;-142.63;100.00;63929.00;6288860;28;19975;-68
2021/06/06 00:40:58;;;;;;;;;;;;;;;-142.63;100.00;63929.00;6287794;28;19988;-68
2021/06/06 00:44:04;;;;;;;;;;;;;;;-142.63;100.00;63929.00;6287319;28;20208;-68
2021/06/06 00:47:10;;;;;;;;;;;;;;;-142.63;100.00;63929.00;6288734;28;19992;-68
2021/06/06 00:50:17;;;;;;;;;;;;;;;-142.63;100.00;63929.00;6287627;28;19928;-68
2021/06/06 00:53:24;;;;;;;;;;;;;;;-142.63;100.00;63929.00;6286288;28;19921;-67
2021/06/06 00:56:30;;;;;;;;;;;;;;;-142.63;100.00;63929.00;6287469;28;19925;-68
2021/06/06 00:59:37;;;;;;;;;;;;;;;-142.63;100.00;63929.00;6288262;28;19921;-68
2021/06/06 01:02:42;;;;;;;;;;;;;;;-142.63;100.00;63929.00;6287218;28;19963;-68
2021/06/06 01:05:49;;;;;;;;;;;;;;;-142.63;100.00;63929.00;6288323;28;19925;-68
2021/06/06 01:08:54;;;;;;;;;;;;;;;-142.63;100.00;63929.00;6286634;28;20107;-68
2021/06/06 01:12:03;;;;;;;;;;;;;;;-142.63;100.00;63929.00;6287114;28;19956;-68
2021/06/06 01:15:17;;;;;;;;;;;;;;;-142.63;100.00;63929.00;6286990;28;19983;-68
2021/06/06 01:18:26;;;;;;;;;;;;;;;-142.63;100.00;63929.00;6288196;28;19927;-68
2021/06/06 01:21:41;;;;;;;;;;;;;;;-142.63;100.00;63929.00;6286085;28;19984;-68
2021/06/06 01:24:49;;;;;;;;;;;;;;;-142.63;100.00;63929.00;6288172;28;19925;-68
2021/06/06 01:27:56;;;;;;;;;;;;;;;-142.63;100.00;63929.00;6287979;28;19920;-68
2021/06/06 01:31:02;;;;;;;;;;;;;;;-142.63;100.00;63929.00;6285854;28;19979;-68
2021/06/06 01:34:13;;;;;;;;;;;;;;;-142.63;100.00;63929.00;6287620;28;19921;-68
2021/06/06 01:37:21;;;;;;;;;;;;;;;-142.63;100.00;63929.00;6287627;28;19943;-68
2021/06/06 01:40:29;;;;;;;;;;;;;;;-142.63;100.00;63929.00;6286558;28;19921;-68
2021/06/06 01:43:34;;;;;;;;;;;;;;;-142.63;100.00;63929.00;6286567;28;19920;-68
2021/06/06 01:46:44;;;;;;;;;;;;;;;-142.63;100.00;63929.00;6286238;28;19964;-68
2021/06/06 01:49:49;;;;;;;;;;;;;;;-142.63;100.00;63929.00;6286614;28;19921;-68
2021/06/06 01:52:58;;;;;;;;;;;;;;;-142.63;100.00;63929.00;6287046;28;19943;-68
2021/06/06 01:56:06;;;;;;;;;;;;;;;-142.63;100.00;63929.00;6285861;28;20200;-68
2021/06/06 01:59:27;;;;;;;;;;;;;;;-142.63;100.00;63929.00;6287450;28;19924;-68
2021/06/06 02:02:35;;;;;;;;;;;;;;;-142.63;100.00;63929.00;6286738;28;19921;-68
2021/06/06 02:05:39;;;;;;;;;;;;;;;-142.63;100.00;63929.00;6291226;28;19967;-68
2021/06/06 02:08:44;;;;;;;;;;;;;;;-142.63;100.00;63929.00;6291618;28;19979;-68
2021/06/06 02:12:01;;;;;;;;;;;;;;;-142.63;100.00;63929.00;6291573;28;19967;-68
2021/06/06 02:15:17;;;;;;;;;;;;;;;-142.63;100.00;63929.00;6290927;28;19921;-68
2021/06/06 02:18:29;;;;;;;;;;;;;;;-142.63;100.00;63929.00;6290893;28;19966;-68
2021/06/06 02:21:36;;;;;;;;;;;;;;;-142.63;100.00;63929.00;6289649;28;19920;-68
2021/06/06 02:24:40;;;;;;;;;;;;;;;-142.63;100.00;63929.00;6290119;28;19920;-68
2021/06/06 02:27:49;;;;;;;;;;;;;;;-142.63;100.00;63929.00;6290630;28;19968;-67
2021/06/06 02:30:56;;;;;;;;;;;;;;;-142.63;100.00;63929.00;6290679;28;19988;-68
2021/06/06 02:34:06;;;;;;;;;;;;;;;-142.63;100.00;63929.00;6290413;28;20207;-67
2021/06/06 02:37:14;;;;;;;;;;;;;;;-142.63;100.00;63929.00;6289781;28;19984;-67
2021/06/06 02:40:23;;;;;;;;;;;;;;;-142.63;100.00;63929.00;6290287;28;19984;-68
2021/06/06 02:43:32;;;;;;;;;;;;;;;-142.63;100.00;63929.00;6289329;28;19990;-68
2021/06/06 02:46:38;;;;;;;;;;;;;;;-142.63;100.00;63929.00;6291575;28;19927;-68
2021/06/06 02:49:43;;;;;;;;;;;;;;;-142.63;100.00;63929.00;6290576;28;19951;-68
2021/06/06 02:52:52;;;;;;;;;;;;;;;-142.63;100.00;63929.00;6290038;28;20200;-68
2021/06/06 02:56:07;;;;;;;;;;;;;;;-142.63;100.00;63929.00;6289083;28;19928;-68
2021/06/06 02:59:17;;;;;;;;;;;;;;;-142.63;100.00;63929.00;6291668;28;19979;-68
2021/06/06 03:02:23;;;;;;;;;;;;;;;-142.63;100.00;63929.00;6289954;28;19956;-68
2021/06/06 03:05:29;;;;;;;;;;;;;;;-142.63;100.00;63929.00;6289809;28;20247;-68
2021/06/06 03:08:34;;;;;;;;;;;;;;;-142.63;100.00;63929.00;6289791;28;19921;-68
2021/06/06 03:11:41;;;;;;;;;;;;;;;-142.63;100.00;63929.00;6289382;28;19921;-68
2021/06/06 03:14:48;;;;;;;;;;;;;;;-142.63;100.00;63929.00;6289270;28;19928;-68
2021/06/06 03:18:05;;;;;;;;;;;;;;;-142.63;100.00;63929.00;6288641;28;19928;-68
2021/06/06 03:21:12;;;;;;;;;;;;;;;-142.63;100.00;63929.00;6288480;28;19976;-68
2021/06/06 03:24:20;;;;;;;;;;;;;;;-142.63;100.00;63929.00;6289726;28;19928;-68
2021/06/06 03:27:34;;;;;;;;;;;;;;;-142.63;100.00;63929.00;6290594;28;19958;-68
2021/06/06 03:30:43;;;;;;;;;;;;;;;-142.63;100.00;63929.00;6289228;28;19928;-68
2021/06/06 03:33:57;;;;;;;;;;;;;;;-142.63;100.00;63929.00;6288909;28;20091;-68
2021/06/06 03:37:08;;;;;;;;;;;;;;;-142.63;100.00;63929.00;6289359;28;19927;-68
2021/06/06 03:40:35;;;;;;;;;;;;;;;-142.63;100.00;63929.00;6290159;28;19921;-68
2021/06/06 03:43:49;;;;;;;;;;;;;;;-142.63;100.00;63929.00;6288306;28;19928;-68
2021/06/06 03:46:56;;;;;;;;;;;;;;;-142.63;100.00;63929.00;6289180;28;19928;-68
2021/06/06 03:50:00;;;;;;;;;;;;;;;-142.63;100.00;63929.00;6288301;28;20095;-68
2021/06/06 03:53:12;;;;;;;;;;;;;;;-142.63;100.00;63929.00;6288573;28;19974;-68
2021/06/06 03:56:17;;;;;;;;;;;;;;;-142.63;100.00;63929.00;6288562;28;19921;-68
2021/06/06 03:59:22;;;;;;;;;;;;;;;-142.63;100.00;63929.00;6288452;28;20200;-68
2021/06/06 04:02:28;;;;;;;;;;;;;;;-142.63;100.00;63929.00;6290161;28;19959;-68
2021/06/06 04:05:32;;;;;;;;;;;;;;;-142.63;100.00;63929.00;6288111;28;19956;-68
2021/06/06 04:08:38;;;;;;;;;;;;;;;-142.63;100.00;63929.00;6288758;28;19921;-68
2021/06/06 04:11:45;;;;;;;;;;;;;;;-142.63;100.00;63929.00;6288691;28;19963;-68
2021/06/06 04:14:53;;;;;;;;;;;;;;;-142.63;100.00;63929.00;6289613;28;19989;-68
2021/06/06 04:18:07;;;;;;;;;;;;;;;-142.63;100.00;63929.00;6288037;28;20147;-68
2021/06/06 04:21:13;;;;;;;;;;;;;;;-142.63;100.00;63929.00;6289168;28;19928;-68
2021/06/06 04:24:19;;;;;;;;;;;;;;;-142.63;100.00;63929.00;6289322;28;19920;-68
2021/06/06 04:27:26;;;;;;;;;;;;;;;-142.63;100.00;63929.00;6287001;28;19927;-68
2021/06/06 04:30:32;;;;;;;;;;;;;;;-142.63;100.00;63929.00;6288783;28;19920;-68
2021/06/06 04:33:37;;;;;;;;;;;;;;;-142.63;100.00;63929.00;6288730;28;19959;-68
2021/06/06 04:36:42;;;;;;;;;;;;;;;-142.63;100.00;63929.00;6287075;28;19921;-68
2021/06/06 04:39:46;;;;;;;;;;;;;;;-142.63;100.00;63929.00;6288004;28;19925;-68
2021/06/06 04:42:51;;;;;;;;;;;;;;;-142.63;100.00;63929.00;6287609;28;19927;-68
2021/06/06 04:45:55;;;;;;;;;;;;;;;-142.63;100.00;63929.00;6287542;28;19920;-68
2021/06/06 04:49:02;;;;;;;;;;;;;;;-142.63;100.00;63929.00;6286805;28;19974;-68
2021/06/06 04:52:06;;;;;;;;;;;;;;;-142.63;100.00;63929.00;6288371;28;19963;-68
2021/06/06 04:55:19;;;;;;;;;;;;;;;-142.63;100.00;63929.00;6287408;28;19928;-68
2021/06/06 04:58:24;;;;;;;;;;;;;;;-142.63;100.00;63929.00;6286474;28;20196;-68
2021/06/06 05:01:27;;;;;;;;;;;;;;;-142.63;100.00;63929.00;6288015;28;19924;-68
2021/06/06 05:04:32;;;;;;;;;;;;;;;-142.63;100.00;63929.00;6287191;28;19927;-68
2021/06/06 05:07:39;;;;;;;;;;;;;;;-142.63;100.00;63929.00;6286178;28;19963;-68
2021/06/06 05:10:44;;;;;;;;;;;;;;;-142.63;100.00;63929.00;6285859;28;19921;-68
2021/06/06 05:13:48;;;;;;;;;;;;;;;-142.63;100.00;63929.00;6286723;28;19956;-68
2021/06/06 05:16:52;;;;;;;;;;;;;;;-142.63;100.00;63929.00;6286897;28;19921;-68
2021/06/06 05:19:57;;;;;;;;;;;;;;;-142.63;100.00;63929.00;6287616;28;19943;-68
2021/06/06 05:23:01;;;;;;;;;;;;;;;-142.63;100.00;63929.00;6287172;28;19928;-68
2021/06/06 05:26:06;;;;;;;;;;;;;;;-142.63;100.00;63929.00;6288179;28;19921;-68
2021/06/06 05:29:10;;;;;;;;;;;;;;;-142.63;100.00;63929.00;6286666;28;19927;-69
2021/06/06 05:32:13;;;;;;;;;;;;;;;-142.63;100.00;63929.00;6288058;28;19959;-68
2021/06/06 05:35:19;;;;;;;;;;;;;;;-142.63;100.00;63929.00;6288000;28;19925;-68
2021/06/06 05:38:23;;;;;;;;;;;;;;;-142.63;100.00;63929.00;6281547;28;71995;-68
2021/06/06 05:41:27;;;;;;;;;;;;;;;-142.63;100.00;63929.00;6277771;28;19923;-68
2021/06/06 05:44:30;;;;;;;;;;;;;;;-142.63;100.00;63929.00;6293035;28;19942;-68
2021/06/06 05:47:33;;;;;;;;;;;;;;;-142.63;100.00;63929.00;6291492;28;20259;-68
2021/06/06 05:50:39;;;;;;;;;;;;;;;-142.63;100.00;63929.00;6292692;28;19921;-68
2021/06/06 05:54:00;;;;;;;;;;;;;;;-142.63;100.00;63929.00;6290757;28;19921;-68
2021/06/06 05:57:03;;;;;;;;;;;;;;;-142.63;100.00;63929.00;6291331;28;20223;-68
2021/06/06 06:00:11;;;;;;;;;;;;;;;-142.63;100.00;63929.00;6292319;28;19927;-68
2021/06/06 06:03:16;;;;;;;;;;;;;;;-142.63;100.00;63929.00;6292421;28;19920;-69
2021/06/06 06:06:20;;;;;;;;;;;;;;;-142.63;100.00;63929.00;6292164;28;19921;-68
2021/06/06 06:09:26;;;;;;;;;;;;;;;-142.63;100.00;63929.00;6290725;28;20046;-69
2021/06/06 06:12:29;;;;;;;;;;;;;;;-142.63;100.00;63929.00;6290132;28;19921;-67
2021/06/06 06:15:32;;;;;;;;;;;;;;;-142.63;100.00;63929.00;6290976;28;20202;-68
2021/06/06 06:18:35;;;;;;;;;;;;;;;-142.63;100.00;63929.00;6292197;28;20027;-68
2021/06/06 06:21:40;;;;;;;;;;;;;;;-142.63;100.00;63929.00;6291382;28;20208;-68
2021/06/06 06:24:43;;;;;;;;;;;;;;;-142.63;100.00;63929.00;6290499;28;19990;-69
2021/06/06 06:27:46;;;;;;;;;;;;;;;-142.63;100.00;63929.00;6291363;28;20003;-67
2021/06/06 06:31:12;;;;;;;;;;;;;;;-142.63;100.00;63929.00;6324079;28;19925;-69
2021/06/06 06:34:32;;;;;;;;;;;;;;;-142.63;100.00;63929.00;6289151;28;20064;-68
2021/06/06 06:37:37;;;;;;;;;;;;;;;-142.63;100.00;63929.00;6289004;28;19943;-68
2021/06/06 06:40:39;;;;;;;;;;;;;;;-142.63;100.00;63929.00;6291545;28;19984;-67
2021/06/06 06:43:42;;;;;;;;;;;;;;;-142.63;100.00;63929.00;6291027;28;19928;-67
2021/06/06 06:46:45;;;;;;;;;;;;;;;-142.63;100.00;63929.00;6291454;28;20031;-67
2021/06/06 06:49:48;;;;;;;;;;;;;;;-142.63;100.00;63929.00;6289318;28;19984;-67
2021/06/06 06:52:53;;;;;;;;;;;;;;;-142.63;100.00;63929.00;6290003;28;20108;-69
2021/06/06 06:55:56;;;;;;;;;;;;;;;-142.63;100.00;63929.00;6290435;28;20099;-68
2021/06/06 06:58:59;;;;;;;;;;;;;;;-142.63;100.00;63929.00;6289965;28;19986;-68
2021/06/06 07:02:03;;;;;;;;;;;;;;;-142.63;100.00;63929.00;6290732;28;19921;-68
2021/06/06 07:05:08;;;;;;;;;;;;;;;-142.63;100.00;63929.00;6289536;28;19943;-68
2021/06/06 07:08:16;;;;;;;;;;;;;;;-142.63;100.00;63929.00;6289690;28;19958;-68
2021/06/06 07:11:21;;;;;;;;;;;;;;;-142.63;100.00;63929.00;6290531;28;19980;-69
2021/06/06 07:14:25;;;;;;;;;;;;;;;-142.63;100.00;63929.00;6289177;28;20207;-68
2021/06/06 07:17:30;;;;;;;;;;;;;;;-142.63;100.00;63929.00;6290530;28;20004;-67
2021/06/06 07:20:35;;;;;;;;;;;;;;;-142.63;100.00;63929.00;6289894;28;19921;-67
2021/06/06 07:23:41;;;;;;;;;;;;;;;-142.63;100.00;63929.00;6289331;28;19920;-67
2021/06/06 07:26:45;;;;;;;;;;;;;;;-142.63;100.00;63929.00;6289996;28;19925;-67
2021/06/06 07:29:53;;;;;;;;;;;;;;;-142.63;100.00;63929.00;6289600;28;19928;-67
2021/06/06 07:32:57;;;;;;;;;;;;;;;-142.63;100.00;63929.00;6289990;28;19925;-67
2021/06/06 07:36:01;;;;;;;;;;;;;;;-142.63;100.00;63929.00;6288828;28;20115;-67
2021/06/06 07:39:05;;;;;;;;;;;;;;;-142.63;100.00;63929.00;6288717;28;19921;-68
2021/06/06 07:42:10;;;;;;;;;;;;;;;-142.63;100.00;63929.00;6290129;28;19920;-68
2021/06/06 07:45:15;;;;;;;;;;;;;;;-142.63;100.00;63929.00;6289827;28;19921;-68
2021/06/06 07:48:18;;;;;;;;;;;;;;;-142.63;100.00;63929.00;6288312;28;19928;-68
2021/06/06 07:51:22;;;;;;;;;;;;;;;-142.63;100.00;63929.00;6288173;28;20104;-68
2021/06/06 07:54:26;;;;;;;;;;;;;;;-142.63;100.00;63929.00;6288385;28;20199;-68
2021/06/06 07:57:29;;;;;;;;;;;;;;;-142.63;100.00;63929.00;6289083;28;19983;-68
2021/06/06 08:00:33;;;;;;;;;;;;;;;-142.63;100.00;63929.00;6287259;28;20108;-69
2021/06/06 08:03:37;;;;;;;;;;;;;;;-142.63;100.00;63929.00;6289429;28;19927;-68
2021/06/06 08:06:40;;;;;;;;;;;;;;;-142.63;100.00;63929.00;6287599;28;20185;-68
2021/06/06 08:09:44;;;;;;;;;;;;;;;-142.63;100.00;63929.00;6288050;28;19952;-68
2021/06/06 08:12:47;;;;;;;;;;;;;;;-142.63;100.00;63929.00;6287476;28;19921;-68
2021/06/06 08:15:50;;;;;;;;;;;;;;;-142.63;100.00;63929.00;6288691;28;19925;-68
2021/06/06 08:18:54;;;;;;;;;;;;;;;-142.63;100.00;63929.00;6289040;28;19952;-68
2021/06/06 08:21:57;;;;;;;;;;;;;;;-142.63;100.00;63929.00;6288377;28;19958;-68
2021/06/06 08:25:02;;;;;;;;;;;;;;;-142.63;100.00;63929.00;6288254;28;19960;-68
2021/06/06 08:28:05;;;;;;;;;;;;;;;-142.63;100.00;63929.00;6287145;28;20162;-68
2021/06/06 08:31:11;;;;;;;;;;;;;;;-142.63;100.00;63929.00;6287077;28;19992;-68
2021/06/06 08:34:14;;;;;;;;;;;;;;;-142.63;100.00;63929.00;6288076;28;19943;-67
2021/06/06 08:37:17;;;;;;;;;;;;;;;-142.63;100.00;63929.00;6286957;28;19920;-68
2021/06/06 08:40:25;;;;;;;;;;;;;;;-142.63;100.00;63929.00;6287939;28;19921;-67
2021/06/06 08:43:34;;;;;;;;;;;;;;;-142.63;100.00;63929.00;6287156;28;19921;-68
2021/06/06 08:46:42;;;;;;;;;;;;;;;-142.63;100.00;63929.00;6287467;28;19932;-67
2021/06/06 08:49:47;;;;;;;;;;;;;;;-142.63;100.00;63929.00;6285185;28;19927;-67
2021/06/06 08:52:54;;;;;;;;;;;;;;;-142.63;100.00;63929.00;6286400;28;19921;-67
2021/06/06 08:56:06;;;;;;;;;;;;;;;-142.63;100.00;63929.00;6287612;28;19927;-67
2021/06/06 08:59:12;;;;;;;;;;;;;;;-142.63;100.00;63929.00;6286116;28;20182;-67
2021/06/06 09:02:19;;;;;;;;;;;;;;;-142.63;100.00;63929.00;6287121;28;19927;-68
2021/06/06 09:05:24;;;;;;;;;;;;;;;-142.63;100.00;63929.00;6286465;28;19990;-69
2021/06/06 09:08:30;;;;;;;;;;;;;;;-142.63;100.00;63929.00;6287262;28;19960;-68
2021/06/06 09:11:35;;;;;;;;;;;;;;;-142.63;100.00;63929.00;6287903;28;19920;-69
2021/06/06 09:14:39;;;;;;;;;;;;;;;-142.63;100.00;63929.00;6286924;28;19943;-69
2021/06/06 09:17:44;;;;;;;;;;;;;;;-142.63;100.00;63929.00;6286037;28;19921;-68
2021/06/06 09:20:48;;;;;;;;;;;;;;;-142.63;100.00;63929.00;6287152;28;19955;-68
2021/06/06 09:24:02;;;;;;;;;;;;;;;-142.63;100.00;63929.00;6318227;28;20452;-68
2021/06/06 09:27:15;;;;;;;;;;;;;;;-142.63;100.00;63929.00;6287078;28;19921;-68
2021/06/06 09:30:19;;;;;;;;;;;;;;;-142.63;100.00;63929.00;6286456;28;19960;-69
2021/06/06 09:33:26;;;;;;;;;;;;;;;-142.63;100.00;63929.00;6286184;28;20084;-70
2021/06/06 09:36:31;;;;;;;;;;;;;;;-142.63;100.00;63929.00;6287635;28;19927;-69
2021/06/06 09:39:38;;;;;;;;;;;;;;;-142.63;100.00;63929.00;6287639;28;19921;-70
2021/06/06 09:42:44;;;;;;;;;;;;;;;-142.63;100.00;63929.00;6286399;28;19921;-68
2021/06/06 09:45:47;;;;;;;;;;;;;;;-142.63;100.00;63929.00;6286572;28;19966;-69
2021/06/06 09:48:51;;;;;;;;;;;;;;;-142.63;100.00;63929.00;6287022;28;19921;-70
2021/06/06 09:51:55;;;;;;;;;;;;;;;-142.63;100.00;63929.00;6287508;28;19988;-70
2021/06/06 09:55:10;;;;;;;;;;;;;;;-142.63;100.00;63929.00;6286981;28;19921;-70
2021/06/06 09:58:18;;;;;;;;;;;;;;;-142.63;100.00;63929.00;6287410;28;19928;-69
2021/06/06 10:01:26;;;;;;;;;;;;;;;-142.63;100.00;63929.00;6287641;28;19928;-69
2021/06/06 10:04:31;;;;;;;;;;;;;;;-142.63;100.00;63929.00;6286422;28;20160;-70
2021/06/06 10:07:37;;;;;;;;;;;;;;;-142.63;100.00;63929.00;6287868;28;19927;-69
2021/06/06 10:10:42;;;;;;;;;;;;;;;-142.63;100.00;63929.00;6286046;28;19966;-69
2021/06/06 10:13:49;;;;;;;;;;;;;;;-142.63;100.00;63929.00;6286691;28;19960;-69
2021/06/06 10:16:54;;;;;;;;;;;;;;;-142.63;100.00;63929.00;6286776;28;19924;-69
2021/06/06 10:20:02;;;;;;;;;;;;;;;-142.63;100.00;63929.00;6299783;28;19997;-69
2021/06/06 10:23:07;;;;;;;;;;;;;;;-142.63;100.00;63929.00;6361586;28;19919;-69
2021/06/06 10:26:14;;;;;;;;;;;;;;;-142.63;100.00;63929.00;6366649;28;19951;-69
2021/06/06 10:29:23;;;;;;;;;;;;;;;-142.63;100.00;63929.00;6366369;28;19919;-69
2021/06/06 10:32:28;;;;;;;;;;;;;;;-142.63;100.00;63929.00;6365610;28;20092;-69
2021/06/06 10:35:31;;;;;;;;;;;;;;;-142.63;100.00;63929.00;6365129;28;20145;-69
2021/06/06 10:38:35;;;;;;;;;;;;;;;-142.63;100.00;63929.00;6365056;28;19957;-69
2021/06/06 10:41:47;;;;;;;;;;;;;;;-142.63;100.00;63929.00;6382113;27;19920;-70
2021/06/06 10:44:55;;;;;;;;;;;;;;;-142.63;100.00;63929.00;6365397;28;19927;-69
2021/06/06 10:48:00;;;;;;;;;;;;;;;-142.63;100.00;63929.00;6364819;28;20137;-69
2021/06/06 10:51:09;;;;;;;;;;;;;;;-142.63;100.00;63929.00;6366221;28;19920;-68
2021/06/06 10:54:25;;;;;;;;;;;;;;;-142.63;100.00;63929.00;6365804;28;19938;-68
2021/06/06 10:57:31;;;;;;;;;;;;;;;-142.63;100.00;63929.00;6365095;28;20000;-70
2021/06/06 11:00:37;;;;;;;;;;;;;;;-142.63;100.00;63929.00;6364475;28;20111;-69
2021/06/06 11:03:40;;;;;;;;;;;;;;;-142.63;100.00;63929.00;6365825;28;19920;-69
2021/06/06 11:06:47;;;;;;;;;;;;;;;-142.63;100.00;63929.00;6365657;28;19987;-69
2021/06/06 11:10:00;;;;;;;;;;;;;;;-142.63;100.00;63929.00;6365719;28;19920;-69
2021/06/06 11:13:14;;;;;;;;;;;;;;;-142.63;100.00;63929.00;6364498;28;19920;-69
2021/06/06 11:16:31;;;;;;;;;;;;;;;-142.63;100.00;63929.00;6365210;28;19951;-69
2021/06/06 11:19:34;;;;;;;;;;;;;;;-142.63;100.00;63929.00;6364152;28;20111;-69
2021/06/06 11:22:38;;;;;;;;;;;;;;;-142.63;100.00;63929.00;6364877;28;19951;-68
2021/06/06 11:25:44;;;;;;;;;;;;;;;-142.63;100.00;63929.00;6364848;28;19927;-68
2021/06/06 11:28:48;;;;;;;;;;;;;;;-142.63;100.00;63929.00;6364657;28;19923;-69
2021/06/06 11:32:01;;;;;;;;;;;;;;;-142.63;100.00;63929.00;6364907;28;19920;-69
2021/06/06 11:35:20;;;;;;;;;;;;;;;-142.63;100.00;63929.00;6364899;28;19920;-68
2021/06/06 11:38:36;;;;;;;;;;;;;;;-142.63;100.00;63929.00;6363541;28;19935;-68
2021/06/06 11:41:42;;;;;;;;;;;;;;;-142.63;100.00;63929.00;6363660;28;19919;-70
2021/06/06 11:44:47;;;;;;;;;;;;;;;-142.63;100.00;63929.00;6364075;28;19998;-68
2021/06/06 11:47:54;;;;;;;;;;;;;;;-142.63;100.00;63929.00;6365086;28;19995;-71
2021/06/06 11:50:59;;;;;;;;;;;;;;;-142.63;100.00;63929.00;6364392;28;19930;-68
2021/06/06 11:54:06;;;;;;;;;;;;;;;-142.63;100.00;63929.00;6363312;28;19955;-68
2021/06/06 11:57:11;;;;;;;;;;;;;;;-142.63;100.00;63929.00;6364084;28;19919;-70
2021/06/06 12:00:17;;;;;;;;;;;;;;;-142.63;100.00;63929.00;6363042;28;19919;-69
2021/06/06 12:03:26;;;;;;;;;;;;;;;-142.63;100.00;63929.00;6362765;28;19951;-69
2021/06/06 12:06:29;;;;;;;;;;;;;;;-142.63;100.00;63929.00;6363358;28;19965;-69
2021/06/06 12:09:36;;;;;;;;;;;;;;;-142.63;100.00;63929.00;6344562;28;19927;-69
2021/06/06 12:12:43;;;;;;;;;;;;;;;-142.63;100.00;63929.00;6363881;28;19957;-70
2021/06/06 12:15:46;;;;;;;;;;;;;;;-142.63;100.00;63929.00;6364664;28;19923;-68
2021/06/06 12:19:03;;;;;;;;;;;;;;;-142.63;100.00;63929.00;6363000;28;20088;-70
2021/06/06 12:22:08;;;;;;;;;;;;;;;-142.63;100.00;63929.00;6362936;28;20248;-69
2021/06/06 12:25:32;;;;;;;;;;;;;;;-142.63;100.00;63929.00;6364548;28;19927;-70
2021/06/06 12:28:36;;;;;;;;;;;;;;;-142.63;100.00;63929.00;6362689;28;20137;-69
2021/06/06 12:40:22;;;;;;;3.40;3.10;;;;;;;24.70;36.18;102079.78;6330614;27;24426;-77
2021/06/06 12:43:28;;;;;;;4.45;3.00;;;;;;;24.38;35.09;102073.69;6261789;28;20232;-76
2021/06/06 12:46:44;;;;;;;3.45;2.75;;;;;;;24.02;34.51;102083.09;6259129;28;20217;-77
2021/06/06 12:49:52;;;;;;;2.60;2.55;;;;;;;24.39;33.32;102083.72;6264340;28;20193;-75
2021/06/06 12:52:57;;;;;;;2.85;2.80;;;;;;;24.95;35.53;102078.09;6259428;28;20193;-73
2021/06/06 12:56:10;;;;;;;3.35;3.15;;;;;;;24.46;32.91;102075.91;6259404;28;20332;-72
2021/06/06 12:59:21;;;;;;;4.10;3.00;;;;;;;24.11;34.40;102059.19;6258746;28;20213;-73
2021/06/06 13:02:40;;;;;;;5.72;2.92;;;;;;;24.47;34.17;102062.81;6258553;28;20209;-74
2021/06/06 13:05:46;;;;;;;3.05;2.85;;;;;;;24.65;nan;102046.28;6281818;28;20831;-78
2021/06/06 13:08:51;;;;;;;2.55;2.50;;;;;;;24.89;nan;102060.50;6285686;28;20263;-81
2021/06/06 13:12:16;;;;;;;6.65;2.97;;;;;;;25.01;nan;102058.28;6284669;28;20263;-77
2021/06/06 13:15:35;;;;;;;2.88;2.88;;;;;;;25.15;nan;102058.47;6284053;28;20260;-77
2021/06/06 13:18:39;;;;;;;7.00;2.72;;;;;;;25.14;nan;102051.25;6283233;28;20322;-78
2021/06/06 13:21:47;;;;;;;2.78;2.58;;;;;;;25.14;nan;102054.03;6289489;28;20543;-78
2021/06/06 13:24:51;;;;;;;2.97;2.90;;;;;;;25.22;nan;102047.81;6286068;28;20534;-77
2021/06/06 13:27:57;;;;;;;4.50;3.22;;;;;;;25.40;nan;102033.22;6287511;28;20835;-79
2021/06/06 13:31:06;;;;;;;3.33;2.90;;;;;;;25.41;nan;102051.66;6290170;28;20259;-78
2021/06/06 13:34:10;;;;;;;3.30;2.72;;;;;;;25.58;nan;102049.34;6289555;28;20264;-78
2021/06/06 13:37:14;;;;;;;8.52;2.92;;;;;;;25.63;nan;102037.34;6288615;28;20251;-78
2021/06/06 13:40:22;;;;;;;2.90;2.70;;;;;;;25.69;nan;102045.38;6288851;28;20279;-79
2021/06/06 13:43:28;;;;;;;2.42;2.40;;;;;;;25.81;nan;102039.47;6288650;28;20283;-79
2021/06/06 13:46:31;;;;;;;3.55;2.20;;;;;;;25.86;nan;102043.03;6285938;28;20259;-77
2021/06/06 13:49:35;;;;;;;2.97;2.33;;;;;;;25.72;nan;102047.63;6277412;28;20264;-77
2021/06/06 13:52:39;;;;;;;2.92;2.22;;;;;;;25.73;nan;102048.44;6270488;28;20263;-78
2021/06/06 13:55:43;;;;;;;1.90;1.90;;;;;;;25.70;nan;102044.28;6267313;28;20284;-77
2021/06/06 13:58:49;;;;;;;2.15;2.03;;;;;;;25.80;nan;102038.63;6280825;28;20300;-78
2021/06/06 14:01:53;;;;;;;2.45;2.25;;;;;;;27.19;nan;102022.75;6266600;28;20528;-77
2021/06/06 14:04:57;;;;;;;11.90;2.15;;;;;;;28.69;nan;102033.88;6266651;28;20284;-77
2021/06/06 14:08:01;;;;;;;2.63;2.35;;;;;;;29.46;nan;102027.22;6266578;28;20480;-78
2021/06/06 14:11:08;;;;;;;4.57;2.55;;;;;;;29.50;nan;102028.28;6266146;28;20510;-77
2021/06/06 14:14:13;;;;;;;4.40;2.80;;;;;;;-142.63;100.00;63929.00;6265101;28;20799;-77
2021/06/06 14:17:21;;;;;;;6.38;2.40;;;;;;;-142.63;100.00;63929.00;6267505;28;20192;-76
2021/06/06 14:20:26;;;;;;;3.92;3.65;;;;;;;-142.63;100.00;63929.00;6265751;28;20231;-77
2021/06/06 14:23:35;;;;;;;3.17;2.90;;;;;;;-142.63;100.00;63929.00;6264743;28;20418;-75
2021/06/06 14:26:59;;;;;;;4.57;2.90;;;;;;;-142.63;100.00;63929.00;6265606;28;20253;-77
2021/06/06 14:30:07;;;;;;;2.85;2.67;;;;;;;-142.63;100.00;63929.00;6265583;28;20196;-77
2021/06/06 14:33:23;;;;;;;2.70;2.60;;;;;;;-142.63;100.00;63929.00;6265506;28;20381;-77
2021/06/06 14:36:29;;;;;;;3.20;2.60;;;;;;;-142.63;100.00;63929.00;6264544;28;20472;-76
2021/06/06 14:39:33;;;;;;;3.20;2.72;;;;;;;-142.63;100.00;63929.00;6265803;28;20241;-76
2021/06/06 14:42:38;;;;;;;3.53;2.17;;;;;;;-142.63;100.00;63929.00;6264595;28;20239;-76
2021/06/06 14:45:45;;;;;;;3.28;2.20;;;;;;;-142.63;100.00;63929.00;6264280;28;20205;-76
2021/06/06 14:48:50;;;;;;;2.65;2.50;;;;;;;-142.63;100.00;63929.00;6263755;28;20199;-77
2021/06/06 14:51:53;;;;;;;2.20;2.20;;;;;;;-142.63;100.00;63929.00;6264646;28;20231;-76
2021/06/06 14:54:57;;;;;;;8.80;6.55;;;;;;;-142.63;100.00;63929.00;6264696;28;20252;-77
2021/06/06 14:58:01;;;;;;;2.92;2.72;;;;;;;-142.63;100.00;63929.00;6264664;28;20253;-76
2021/06/06 15:01:08;;;;;;;2.30;2.20;;;;;;;-142.63;100.00;63929.00;6262781;28;20220;-77
2021/06/06 15:04:13;;;;;;;2.65;2.45;;;;;;;-142.63;100.00;63929.00;6263058;28;20525;-75
2021/06/06 15:07:17;;;;;;;2.42;2.30;;;;;;;-142.63;100.00;63929.00;6262705;28;20347;-76
2021/06/06 15:10:23;;;;;;;2.85;2.42;;;;;;;-142.63;100.00;63929.00;6263508;28;20195;-76
2021/06/06 15:13:29;;;;;;;3.17;2.33;;;;;;;-142.63;100.00;63929.00;6263431;28;20217;-77
2021/06/06 15:16:34;;;;;;;2.72;2.00;;;;;;;-142.63;100.00;63929.00;6263384;28;20185;-76
2021/06/06 15:19:39;;;;;;;3.20;2.33;;;;;;;-142.63;100.00;63929.00;6264292;28;20209;-79
2021/06/06 15:22:44;;;;;;;2.25;2.10;;;;;;;-142.63;100.00;63929.00;6266257;28;20216;-76
2021/06/06 15:25:47;;;;;;;2.95;2.85;;;;;;;-142.63;100.00;63929.00;6263350;28;20208;-76
2021/06/06 15:28:53;;;;;;;2.30;2.30;;;;;;;-142.63;100.00;63929.00;6263436;28;20252;-76